Cross City, FL

11:32 PM EDT on September 01, 2014 (GMT -0400)
Horseshoe Beach | Change Station
CLOSE
Current Station
Personal Weather Station
Location: Horseshoe Beach, FL
Elevation: 10 ft
Nearby Weather Stations

Elev 10 ft 29.44 °N, 83.28 °W | Updated 12 seconds ago

Clear
Clear
81.2 °F
Feels Like 88 °F
N
0.0
Wind Variable Wind from WSW
Gusts 0.0 mph

Today
High -- | Low -- °F
--% Chance of Precip.
Yesterday
High -- | Low -- °F
Precip. -- in
7:09 AM 7:54 PM
Waxing Crescent, 47% visible
Pressure 30.11 in
Visibility 10.0 miles
Clouds Clear
Heat Index 88 °F
Dew Point 77 °F
Humidity 86%
Rainfall 0.02 in
Snow Depth Not available.
UV 0 out of 12
Pollen 7.70 out of 12
Air Quality Not available.
Flu Activity Not available.
METAR K40J 020320Z AUTO 00000KT 10SM CLR 25/23 A3011 RMK AO2 LTG DSNT NE THRU SE

More Conditions Fewer Conditions

Pressure 30.11 in
Visibility 10.0 miles
Clouds Clear
Heat Index 88 °F
Dew Point 77 °F
Humidity 86%
Rainfall 0.02 in
Snow Depth Not available.
UV 0 out of 12
Pollen 7.70 out of 12
Air Quality Not available.
Flu Activity Not available.
METAR K40J 020320Z AUTO 00000KT 10SM CLR 25/23 A3011 RMK AO2 LTG DSNT NE THRU SE

More Conditions Fewer Conditions

10-Day Weather Forecast

Almanac

Astronomy

Sep. 01, 2014 Rise Set
Actual Time 7:09 AM EDT 7:54 PM EDT
Civil Twilight 6:45 AM EDT 8:18 PM EDT
Nautical Twilight 6:16 AM EDT 8:47 PM EDT
Astronomical Twilight 5:47 AM EDT 9:16 PM EDT
Moon 1:24 PM EDT (9/1) No Moon Set
Length of Visible Light 13h 33m
Length of Day
12h 44m
Tomorrow will be 1m 43s shorter.
Waxing Crescent, 47% of the Moon is Illuminated
Today
Waxing Crescent
Sep 2
First Quarter
Sep 8
Full
Sep 15
Last Quarter
Sep 24
New

Today's Extremes

State Highs State Lows

Community

WunderPhotos

Upload Photos

1,749,555 photos uploaded!

WunderBlogs® & News

Nearby

Snow Depth

Station Depth Elevation
No new snow has been reported.

Earthquake Activity

City Distance Mag. Time & Date
No recent earthquake activity has been reported nearby.
Minimum magnitude displayed is 2.5.

Coastal Water Temperatures

Place Temperature
No Stations Reporting

Nearby Weather Stations